OPKC Airport Information

Runway Information
Runway 07L Length 10500 ft width 151 ft
Elevation 77 ft Threshold 0 ft Heading 75
Runway 25R Length 10500 ft Width 151 ft
Elevation 100 ft Threshold 0 ft Heading 255
Runway 07R Length 11155 ft width 151 ft
Elevation 71 ft Threshold 0 ft Heading 74
Runway 25L Length 11155 ft Width 151 ft
Elevation 89 ft Threshold 0 ft Heading 254
Airport Frequencies
Type APP Name KARACHI AP Frequency 125.5 MHZ
Type ATIS Name ATIS Frequency 126.7 MHZ
Type GND Name KARACHI GN Frequency 121.6 MHZ
Type TWR Name KARACHI TW Frequency 118.3 MHZ
Airport Navaids
Type VOR-DME Name Karachi Frequency 112100 KHZ
Type NDB Name Karachi Frequency 271 KHZ
Airport Weather Information & NOTAM
ADDS - METARS form results

(2250 UTC 16 October 2018)
Data provider http://aviationweather.gov/metar/data/
 
METAR text: OPKC 162225Z 28003KT 6000 FEW100 25/22 Q1011 NOSIG
Conditions at: OPKC (KARACHI INTL ARP, PK) observed 2225 UTC 16 October 2018
Temperature: 25.0°C (77°F)
Dewpoint: 22.0°C (72°F) [RH = 83%]
Pressure (altimeter): 29.85 inches Hg (1011.0 mb)
Winds: from the W (280 degrees) at 3 MPH (3 knots; 1.5 m/s)
Visibility: 4 miles ( 6 km)
Ceiling: at least 12,000 feet AGL
Clouds: few clouds at 10000 feet AGL
Weather: no significant weather observed at this time

METAR text: OPKC 162155Z 00000KT 6000 FEW020 SCT100 25/22 Q1011 NOSIG
Conditions at: OPKC (KARACHI INTL ARP, PK) observed 2155 UTC 16 October 2018
Temperature: 25.0°C (77°F)
Dewpoint: 22.0°C (72°F) [RH = 83%]
Pressure (altimeter): 29.85 inches Hg (1011.0 mb)
Winds: calm
Visibility: 4 miles ( 6 km)
Ceiling: at least 12,000 feet AGL
Clouds: few clouds at 2000 feet AGL
scattered clouds at 10000 feet AGL
Weather: no significant weather observed at this time

Forecast for: OPKC (KARACHI INTL ARP, PK)
Text: TAF OPKC 162130Z 1700/1709 31008KT 5000 HZ SCT030
Forecast period: 0000 to 0900 UTC 17 October 2018
Forecast type: FROM: standard forecast or significant change
Winds: from the NW (310 degrees) at 9 MPH (8 knots; 4.1 m/s)
Visibility: 3 miles (5 km)
Ceiling: at least 12,000 feet AGL
Clouds: scattered clouds at 3000 feet AGL
Weather: HZ  (haze)
Text: TEMPO 1700/1704 33005KT 3000 FU SCT020
Forecast period: 0000 to 0400 UTC 17 October 2018
Forecast type: TEMPORARY: The following changes expected for less than half the time period
Winds: from the NNW (330 degrees) at 6 MPH (5 knots; 2.6 m/s)
Visibility: 1.86 miles (2.99 km)
Ceiling: at least 12,000 feet AGL
Clouds: scattered clouds at 2000 feet AGL
Weather: FU  (smoke)